Tekamah, Nebraska
Current Conditions -  °F | °C
As of 12:54 PM on Monday 20 Oct 2014 (Local Time) from KTQE Reporting Station
Clear Clear  
Wind Chill: 70°   Ceiling: Unl
Heat Index: 70°   Visibility: 10mi
Dew Point: 39°   Wind: 5mph
Humidity: 32%   Direction: 300°WNW
Pressure: 30.09"   Gusts: NA
Location:  41.78°N, 96.22°W
Report Text: KTQE 201754Z AUTO 30004KT 10SM CLR 21/04 A3009 RMK AO2 SLP183 T02110039 10211 20056 58006
Loading
Personal Weather Stations






























Interactive Weather Map
Tropical Storm Tracking
New forecast layout! Learn more

10-Day Weather Forecast

Advertisements
Track Severe Weather on mobile